createdAt,value
2023-04-24T19:45:19.686Z,98158.22
2023-04-24T19:47:46.693Z,98157.38
2023-04-24T19:50:14.860Z,98163.28
2023-04-24T19:52:41.779Z,98166.53
2023-04-24T19:55:09.002Z,98161.66
2023-04-24T19:57:35.593Z,98157.69
2023-04-24T20:00:02.822Z,98161.75
2023-04-24T20:02:29.382Z,98156.94
2023-04-24T20:04:56.140Z,98154.22
2023-04-24T20:07:22.938Z,98154.00
2023-04-24T20:09:49.414Z,98153.72
2023-04-24T20:12:16.182Z,98155.88
2023-04-24T20:14:42.750Z,98159.13
2023-04-24T20:17:09.279Z,98159.09
2023-04-24T20:19:36.027Z,98149.06
2023-04-24T20:22:02.582Z,98157.19
2023-04-24T20:24:29.102Z,98152.31
2023-04-24T20:26:57.075Z,98152.53
2023-04-24T20:29:23.558Z,98149.81
2023-04-24T20:31:50.263Z,98154.66
2023-04-24T20:34:16.948Z,98156.84
2023-04-24T20:36:48.008Z,98153.56
2023-04-24T20:39:16.047Z,98146.50
2023-04-24T20:41:42.543Z,98149.72
2023-04-24T20:44:09.073Z,98146.22
2023-04-24T20:46:35.626Z,98144.84
2023-04-24T20:49:03.524Z,98144.06
2023-04-24T20:51:29.995Z,98151.88
2023-04-24T20:53:56.530Z,98150.53
2023-04-24T20:56:24.640Z,98149.75
2023-04-24T20:58:53.857Z,98150.94
2023-04-24T21:01:22.682Z,98146.03
2023-04-24T21:03:49.571Z,98143.28
2023-04-24T21:06:16.411Z,98142.69
2023-04-24T21:08:42.931Z,98136.69
2023-04-24T21:11:09.434Z,98138.63
2023-04-24T21:13:35.931Z,98134.50
2023-04-24T21:16:02.554Z,98135.59
2023-04-24T21:18:29.047Z,98133.34
2023-04-24T21:20:56.788Z,98132.03
2023-04-24T21:23:23.263Z,98139.50
2023-04-24T21:25:49.915Z,98140.31
2023-04-24T21:28:16.570Z,98140.28
2023-04-24T21:30:43.608Z,98127.63
2023-04-24T21:33:10.528Z,98123.03
2023-04-24T21:35:37.024Z,98122.25
2023-04-24T21:38:03.773Z,98124.38
2023-04-24T21:40:30.342Z,98127.06
2023-04-24T21:42:56.905Z,98121.69
2023-04-24T21:45:23.446Z,98127.84
2023-04-24T21:47:50.047Z,98129.97
2023-04-24T21:50:16.674Z,98122.97
2023-04-24T21:52:43.264Z,98118.69
2023-04-24T21:55:10.010Z,98120.84
2023-04-24T21:57:36.620Z,98120.59
2023-04-24T22:00:06.106Z,98123.28
2023-04-24T22:02:32.599Z,98116.00
2023-04-24T22:05:04.633Z,98114.34
2023-04-24T22:07:35.907Z,98100.03
2023-04-24T22:10:02.826Z,98112.63
2023-04-24T22:12:29.318Z,98108.00
2023-04-24T22:14:56.031Z,98107.69
2023-04-24T22:17:23.583Z,98104.94
2023-04-24T22:19:51.396Z,98105.38
2023-04-24T22:22:18.208Z,98099.94
2023-04-24T22:24:44.730Z,98093.03
2023-04-24T22:27:11.179Z,98090.78
2023-04-24T22:29:37.642Z,98090.84
2023-04-24T22:32:04.233Z,98092.56
2023-04-24T22:34:30.853Z,98083.97
2023-04-24T22:36:57.391Z,98078.38
2023-04-24T22:39:23.852Z,98077.50
2023-04-24T22:41:50.531Z,98078.88
2023-04-24T22:44:17.054Z,98072.03
2023-04-24T22:46:43.654Z,98081.13
2023-04-24T22:49:10.334Z,98084.34
2023-04-24T22:51:37.402Z,98090.00
2023-04-24T22:54:04.798Z,98075.75
2023-04-24T22:56:32.070Z,98098.34
2023-04-24T22:58:59.022Z,98119.41
2023-04-24T23:01:27.310Z,98106.97
2023-04-24T23:03:54.189Z,98104.53
2023-04-24T23:06:21.470Z,98104.13
2023-04-24T23:08:47.883Z,98080.28
2023-04-24T23:11:14.399Z,98077.69
2023-04-24T23:13:40.901Z,98082.16
2023-04-24T23:16:07.528Z,98087.53
2023-04-24T23:18:34.264Z,98076.19
2023-04-24T23:21:02.410Z,98076.03
2023-04-24T23:23:29.134Z,98073.34
2023-04-24T23:25:55.683Z,98077.16
2023-04-24T23:28:22.169Z,98069.66
2023-04-24T23:30:48.657Z,98070.16
2023-04-24T23:33:15.254Z,98063.78
2023-04-24T23:35:41.842Z,98061.38
2023-04-24T23:38:08.366Z,98068.16
2023-04-24T23:40:34.790Z,98076.72
2023-04-24T23:43:07.500Z,98059.50
2023-04-24T23:45:35.481Z,98067.06
2023-04-24T23:48:02.197Z,98058.19
2023-04-24T23:50:28.752Z,98060.06
2023-04-24T23:52:55.595Z,98064.59
2023-04-24T23:55:22.168Z,98060.56
2023-04-24T23:57:48.604Z,98060.00
